sensor_id;sensor_type;location;lat;lon;timestamp;P1;durP1;ratioP1;P2;durP2;ratioP2
46563;SDS011;32291;52.010;4.446;2022-12-05T00:00:31;41.63;;;28.48;;
46563;SDS011;32291;52.010;4.446;2022-12-05T00:01:35;44.78;;;29.45;;
46563;SDS011;32291;52.010;4.446;2022-12-05T00:02:42;40.47;;;29.10;;
46563;SDS011;32291;52.010;4.446;2022-12-05T00:03:46;42.20;;;29.35;;
46563;SDS011;32291;52.010;4.446;2022-12-05T00:04:51;42.55;;;29.58;;
46563;SDS011;32291;52.010;4.446;2022-12-05T00:05:56;43.50;;;30.42;;
46563;SDS011;32291;52.010;4.446;2022-12-05T00:06:59;42.72;;;30.30;;
46563;SDS011;32291;52.010;4.446;2022-12-05T00:08:02;43.20;;;28.83;;
46563;SDS011;32291;52.010;4.446;2022-12-05T00:09:05;41.28;;;28.45;;
46563;SDS011;32291;52.010;4.446;2022-12-05T00:10:09;42.90;;;29.88;;
46563;SDS011;32291;52.010;4.446;2022-12-05T00:11:18;43.08;;;29.35;;
46563;SDS011;32291;52.010;4.446;2022-12-05T00:12:32;41.97;;;28.67;;
46563;SDS011;32291;52.010;4.446;2022-12-05T00:13:34;44.35;;;30.38;;
46563;SDS011;32291;52.010;4.446;2022-12-05T00:14:41;40.65;;;28.60;;
46563;SDS011;32291;52.010;4.446;2022-12-05T00:15:44;40.70;;;28.42;;
46563;SDS011;32291;52.010;4.446;2022-12-05T00:16:50;43.55;;;30.30;;
46563;SDS011;32291;52.010;4.446;2022-12-05T00:17:55;45.40;;;29.25;;
46563;SDS011;32291;52.010;4.446;2022-12-05T00:18:58;38.67;;;27.10;;
46563;SDS011;32291;52.010;4.446;2022-12-05T00:20:02;39.72;;;27.40;;
46563;SDS011;32291;52.010;4.446;2022-12-05T00:21:11;38.70;;;27.73;;
46563;SDS011;32291;52.010;4.446;2022-12-05T00:22:24;41.35;;;29.33;;
46563;SDS011;32291;52.010;4.446;2022-12-05T00:23:26;41.22;;;28.17;;
46563;SDS011;32291;52.010;4.446;2022-12-05T00:24:29;38.75;;;27.73;;
46563;SDS011;32291;52.010;4.446;2022-12-05T00:25:31;40.10;;;28.60;;
46563;SDS011;32291;52.010;4.446;2022-12-05T00:26:36;39.10;;;26.67;;
46563;SDS011;32291;52.010;4.446;2022-12-05T00:27:38;39.05;;;26.83;;
46563;SDS011;32291;52.010;4.446;2022-12-05T00:28:41;40.13;;;27.35;;
46563;SDS011;32291;52.010;4.446;2022-12-05T00:29:43;40.95;;;28.27;;
46563;SDS011;32291;52.010;4.446;2022-12-05T00:30:47;39.20;;;27.85;;
46563;SDS011;32291;52.010;4.446;2022-12-05T00:31:51;40.60;;;28.65;;
46563;SDS011;32291;52.010;4.446;2022-12-05T00:32:54;38.80;;;28.30;;
46563;SDS011;32291;52.010;4.446;2022-12-05T00:34:01;45.25;;;29.90;;
46563;SDS011;32291;52.010;4.446;2022-12-05T00:35:03;42.15;;;29.52;;
46563;SDS011;32291;52.010;4.446;2022-12-05T00:36:08;38.70;;;27.17;;
46563;SDS011;32291;52.010;4.446;2022-12-05T00:37:14;43.95;;;28.92;;
46563;SDS011;32291;52.010;4.446;2022-12-05T00:38:16;38.65;;;26.77;;
46563;SDS011;32291;52.010;4.446;2022-12-05T00:39:19;38.65;;;27.48;;
46563;SDS011;32291;52.010;4.446;2022-12-05T00:40:21;40.95;;;28.73;;
46563;SDS011;32291;52.010;4.446;2022-12-05T00:41:28;41.95;;;28.60;;
46563;SDS011;32291;52.010;4.446;2022-12-05T00:42:32;38.28;;;27.05;;
46563;SDS011;32291;52.010;4.446;2022-12-05T00:43:35;39.75;;;28.10;;
46563;SDS011;32291;52.010;4.446;2022-12-05T00:44:38;41.97;;;27.65;;
46563;SDS011;32291;52.010;4.446;2022-12-05T00:45:40;37.40;;;27.15;;
46563;SDS011;32291;52.010;4.446;2022-12-05T00:46:43;36.88;;;27.05;;
46563;SDS011;32291;52.010;4.446;2022-12-05T00:47:45;37.88;;;26.52;;
46563;SDS011;32291;52.010;4.446;2022-12-05T00:48:48;42.22;;;28.17;;
46563;SDS011;32291;52.010;4.446;2022-12-05T00:49:54;36.72;;;26.58;;
46563;SDS011;32291;52.010;4.446;2022-12-05T00:51:03;37.05;;;27.00;;
46563;SDS011;32291;52.010;4.446;2022-12-05T00:52:12;38.38;;;26.85;;
46563;SDS011;32291;52.010;4.446;2022-12-05T00:53:14;38.63;;;26.75;;
46563;SDS011;32291;52.010;4.446;2022-12-05T00:54:16;37.53;;;25.95;;
46563;SDS011;32291;52.010;4.446;2022-12-05T00:55:18;38.15;;;26.95;;
46563;SDS011;32291;52.010;4.446;2022-12-05T00:56:22;35.50;;;26.15;;
46563;SDS011;32291;52.010;4.446;2022-12-05T00:57:26;38.85;;;27.75;;
46563;SDS011;32291;52.010;4.446;2022-12-05T00:58:29;35.00;;;25.67;;
46563;SDS011;32291;52.010;4.446;2022-12-05T00:59:32;38.42;;;26.25;;
46563;SDS011;32291;52.010;4.446;2022-12-05T01:00:35;37.28;;;25.88;;
46563;SDS011;32291;52.010;4.446;2022-12-05T01:01:39;35.45;;;25.50;;
46563;SDS011;32291;52.010;4.446;2022-12-05T01:02:43;33.47;;;24.35;;
46563;SDS011;32291;52.010;4.446;2022-12-05T01:03:45;36.88;;;24.50;;
46563;SDS011;32291;52.010;4.446;2022-12-05T01:04:54;31.27;;;23.48;;
46563;SDS011;32291;52.010;4.446;2022-12-05T01:05:58;35.28;;;25.30;;
46563;SDS011;32291;52.010;4.446;2022-12-05T01:07:00;35.60;;;25.58;;
46563;SDS011;32291;52.010;4.446;2022-12-05T01:08:02;35.53;;;24.65;;
46563;SDS011;32291;52.010;4.446;2022-12-05T01:09:06;34.75;;;24.17;;
46563;SDS011;32291;52.010;4.446;2022-12-05T01:10:12;35.90;;;25.35;;
46563;SDS011;32291;52.010;4.446;2022-12-05T01:11:15;34.55;;;24.75;;
46563;SDS011;32291;52.010;4.446;2022-12-05T01:12:22;31.90;;;23.45;;
46563;SDS011;32291;52.010;4.446;2022-12-05T01:13:25;38.33;;;25.73;;
46563;SDS011;32291;52.010;4.446;2022-12-05T01:14:28;34.47;;;25.20;;
46563;SDS011;32291;52.010;4.446;2022-12-05T01:15:34;33.10;;;24.75;;
46563;SDS011;32291;52.010;4.446;2022-12-05T01:16:44;36.13;;;26.00;;
46563;SDS011;32291;52.010;4.446;2022-12-05T01:17:51;34.08;;;23.50;;
46563;SDS011;32291;52.010;4.446;2022-12-05T01:18:55;35.88;;;25.27;;
46563;SDS011;32291;52.010;4.446;2022-12-05T01:19:59;34.08;;;23.48;;
46563;SDS011;32291;52.010;4.446;2022-12-05T01:21:03;36.25;;;25.90;;
46563;SDS011;32291;52.010;4.446;2022-12-05T01:22:09;34.60;;;24.42;;
46563;SDS011;32291;52.010;4.446;2022-12-05T01:23:12;35.38;;;25.25;;
46563;SDS011;32291;52.010;4.446;2022-12-05T01:24:16;34.88;;;24.63;;
46563;SDS011;32291;52.010;4.446;2022-12-05T01:25:20;33.28;;;23.90;;
46563;SDS011;32291;52.010;4.446;2022-12-05T01:26:23;34.38;;;25.48;;
46563;SDS011;32291;52.010;4.446;2022-12-05T01:27:26;36.33;;;25.65;;
46563;SDS011;32291;52.010;4.446;2022-12-05T01:28:28;35.03;;;24.55;;
46563;SDS011;32291;52.010;4.446;2022-12-05T01:29:37;33.78;;;24.50;;
46563;SDS011;32291;52.010;4.446;2022-12-05T01:30:41;34.10;;;23.88;;
46563;SDS011;32291;52.010;4.446;2022-12-05T01:31:49;34.47;;;23.20;;
46563;SDS011;32291;52.010;4.446;2022-12-05T01:32:56;35.05;;;24.52;;
46563;SDS011;32291;52.010;4.446;2022-12-05T01:34:00;35.03;;;25.52;;
46563;SDS011;32291;52.010;4.446;2022-12-05T01:35:09;37.97;;;24.85;;
46563;SDS011;32291;52.010;4.446;2022-12-05T01:36:14;34.17;;;24.30;;
46563;SDS011;32291;52.010;4.446;2022-12-05T01:37:18;34.63;;;23.52;;
46563;SDS011;32291;52.010;4.446;2022-12-05T01:38:20;34.30;;;24.40;;
46563;SDS011;32291;52.010;4.446;2022-12-05T01:39:22;34.17;;;24.02;;
46563;SDS011;32291;52.010;4.446;2022-12-05T01:40:25;35.85;;;24.58;;
46563;SDS011;32291;52.010;4.446;2022-12-05T01:41:28;36.33;;;23.77;;
46563;SDS011;32291;52.010;4.446;2022-12-05T01:42:37;32.53;;;23.77;;
46563;SDS011;32291;52.010;4.446;2022-12-05T01:45:33;34.05;;;23.77;;
46563;SDS011;32291;52.010;4.446;2022-12-05T01:46:45;35.70;;;23.17;;
46563;SDS011;32291;52.010;4.446;2022-12-05T01:47:51;36.67;;;25.77;;
46563;SDS011;32291;52.010;4.446;2022-12-05T01:49:05;36.15;;;24.13;;
46563;SDS011;32291;52.010;4.446;2022-12-05T01:50:19;37.85;;;24.23;;
46563;SDS011;32291;52.010;4.446;2022-12-05T01:51:21;36.97;;;24.42;;
46563;SDS011;32291;52.010;4.446;2022-12-05T01:52:25;36.65;;;24.02;;
46563;SDS011;32291;52.010;4.446;2022-12-05T01:53:31;34.50;;;24.23;;
46563;SDS011;32291;52.010;4.446;2022-12-05T01:54:35;30.73;;;22.98;;
46563;SDS011;32291;52.010;4.446;2022-12-05T01:55:39;35.17;;;24.15;;
46563;SDS011;32291;52.010;4.446;2022-12-05T01:56:43;34.92;;;24.23;;
46563;SDS011;32291;52.010;4.446;2022-12-05T01:57:52;36.17;;;24.77;;
46563;SDS011;32291;52.010;4.446;2022-12-05T01:58:59;32.55;;;22.77;;
46563;SDS011;32291;52.010;4.446;2022-12-05T02:00:08;35.03;;;23.85;;
46563;SDS011;32291;52.010;4.446;2022-12-05T02:01:20;33.85;;;23.60;;
46563;SDS011;32291;52.010;4.446;2022-12-05T02:02:23;32.17;;;22.75;;
46563;SDS011;32291;52.010;4.446;2022-12-05T02:03:27;33.53;;;24.10;;
46563;SDS011;32291;52.010;4.446;2022-12-05T02:04:30;36.65;;;23.15;;
46563;SDS011;32291;52.010;4.446;2022-12-05T02:05:44;32.17;;;23.35;;
46563;SDS011;32291;52.010;4.446;2022-12-05T02:06:55;33.30;;;23.25;;
46563;SDS011;32291;52.010;4.446;2022-12-05T02:08:00;35.55;;;24.05;;
46563;SDS011;32291;52.010;4.446;2022-12-05T02:09:08;33.13;;;22.90;;
46563;SDS011;32291;52.010;4.446;2022-12-05T02:10:12;33.58;;;23.65;;
46563;SDS011;32291;52.010;4.446;2022-12-05T02:11:14;35.67;;;24.48;;
46563;SDS011;32291;52.010;4.446;2022-12-05T02:12:17;31.63;;;23.88;;
46563;SDS011;32291;52.010;4.446;2022-12-05T02:13:26;34.42;;;24.00;;
46563;SDS011;32291;52.010;4.446;2022-12-05T02:14:42;34.83;;;23.20;;
46563;SDS011;32291;52.010;4.446;2022-12-05T02:21:13;32.75;;;22.25;;
46563;SDS011;32291;52.010;4.446;2022-12-05T02:25:37;33.67;;;22.55;;
46563;SDS011;32291;52.010;4.446;2022-12-05T02:27:21;33.78;;;23.08;;
46563;SDS011;32291;52.010;4.446;2022-12-05T02:30:42;33.35;;;22.27;;
46563;SDS011;32291;52.010;4.446;2022-12-05T02:37:16;30.63;;;22.02;;
46563;SDS011;32291;52.010;4.446;2022-12-05T02:41:20;36.72;;;24.60;;
46563;SDS011;32291;52.010;4.446;2022-12-05T02:42:43;31.02;;;21.52;;
46563;SDS011;32291;52.010;4.446;2022-12-05T02:44:23;33.08;;;23.83;;
46563;SDS011;32291;52.010;4.446;2022-12-05T02:46:01;33.95;;;22.83;;
46563;SDS011;32291;52.010;4.446;2022-12-05T02:47:13;34.40;;;22.15;;
46563;SDS011;32291;52.010;4.446;2022-12-05T02:48:20;39.00;;;24.73;;
46563;SDS011;32291;52.010;4.446;2022-12-05T02:49:24;33.00;;;23.00;;
46563;SDS011;32291;52.010;4.446;2022-12-05T02:50:34;34.65;;;23.77;;
46563;SDS011;32291;52.010;4.446;2022-12-05T02:51:42;36.33;;;23.98;;
46563;SDS011;32291;52.010;4.446;2022-12-05T02:52:54;32.45;;;23.35;;
46563;SDS011;32291;52.010;4.446;2022-12-05T02:54:03;33.33;;;23.90;;
46563;SDS011;32291;52.010;4.446;2022-12-05T02:55:10;36.67;;;24.42;;
46563;SDS011;32291;52.010;4.446;2022-12-05T02:56:16;34.35;;;23.42;;
46563;SDS011;32291;52.010;4.446;2022-12-05T02:57:21;31.10;;;22.45;;
46563;SDS011;32291;52.010;4.446;2022-12-05T02:58:33;34.90;;;24.88;;
46563;SDS011;32291;52.010;4.446;2022-12-05T02:59:42;34.08;;;23.60;;
46563;SDS011;32291;52.010;4.446;2022-12-05T03:00:46;36.33;;;24.58;;
46563;SDS011;32291;52.010;4.446;2022-12-05T03:01:57;35.22;;;24.73;;
46563;SDS011;32291;52.010;4.446;2022-12-05T03:03:00;33.42;;;24.05;;
46563;SDS011;32291;52.010;4.446;2022-12-05T03:04:26;34.63;;;23.63;;
46563;SDS011;32291;52.010;4.446;2022-12-05T03:05:39;32.38;;;23.15;;
46563;SDS011;32291;52.010;4.446;2022-12-05T03:07:08;33.72;;;23.33;;
46563;SDS011;32291;52.010;4.446;2022-12-05T03:08:14;36.17;;;23.90;;
46563;SDS011;32291;52.010;4.446;2022-12-05T03:09:28;33.40;;;23.77;;
46563;SDS011;32291;52.010;4.446;2022-12-05T03:10:37;30.38;;;22.63;;
46563;SDS011;32291;52.010;4.446;2022-12-05T03:11:46;34.75;;;23.65;;
46563;SDS011;32291;52.010;4.446;2022-12-05T03:12:58;36.72;;;23.10;;
46563;SDS011;32291;52.010;4.446;2022-12-05T03:14:11;32.55;;;23.48;;
46563;SDS011;32291;52.010;4.446;2022-12-05T03:15:24;38.15;;;24.73;;
46563;SDS011;32291;52.010;4.446;2022-12-05T03:16:40;34.70;;;23.83;;
46563;SDS011;32291;52.010;4.446;2022-12-05T03:17:51;36.35;;;23.65;;
46563;SDS011;32291;52.010;4.446;2022-12-05T03:21:06;36.28;;;24.27;;
46563;SDS011;32291;52.010;4.446;2022-12-05T03:22:32;34.92;;;24.05;;
46563;SDS011;32291;52.010;4.446;2022-12-05T03:23:50;32.08;;;23.52;;
46563;SDS011;32291;52.010;4.446;2022-12-05T03:25:01;31.15;;;22.75;;
46563;SDS011;32291;52.010;4.446;2022-12-05T03:28:16;33.72;;;23.27;;
46563;SDS011;32291;52.010;4.446;2022-12-05T03:29:33;34.88;;;24.10;;
46563;SDS011;32291;52.010;4.446;2022-12-05T03:30:51;34.58;;;23.98;;
46563;SDS011;32291;52.010;4.446;2022-12-05T03:33:20;33.47;;;23.77;;
46563;SDS011;32291;52.010;4.446;2022-12-05T03:34:31;34.30;;;22.80;;
46563;SDS011;32291;52.010;4.446;2022-12-05T03:35:58;34.55;;;23.73;;
46563;SDS011;32291;52.010;4.446;2022-12-05T03:37:34;34.17;;;24.35;;
46563;SDS011;32291;52.010;4.446;2022-12-05T03:38:53;36.15;;;23.42;;
46563;SDS011;32291;52.010;4.446;2022-12-05T03:41:40;35.63;;;23.90;;
46563;SDS011;32291;52.010;4.446;2022-12-05T03:43:28;38.45;;;24.80;;
46563;SDS011;32291;52.010;4.446;2022-12-05T03:44:49;32.20;;;23.48;;
46563;SDS011;32291;52.010;4.446;2022-12-05T03:46:12;32.45;;;23.45;;
46563;SDS011;32291;52.010;4.446;2022-12-05T03:47:51;35.15;;;23.92;;
46563;SDS011;32291;52.010;4.446;2022-12-05T03:49:16;35.25;;;22.67;;
46563;SDS011;32291;52.010;4.446;2022-12-05T03:50:49;34.78;;;23.13;;
46563;SDS011;32291;52.010;4.446;2022-12-05T03:52:03;34.60;;;23.13;;
46563;SDS011;32291;52.010;4.446;2022-12-05T03:53:15;32.70;;;23.42;;
46563;SDS011;32291;52.010;4.446;2022-12-05T03:56:20;37.33;;;23.70;;
46563;SDS011;32291;52.010;4.446;2022-12-05T03:57:47;32.72;;;21.70;;
46563;SDS011;32291;52.010;4.446;2022-12-05T03:59:20;32.17;;;23.38;;
46563;SDS011;32291;52.010;4.446;2022-12-05T04:00:39;38.85;;;25.88;;
46563;SDS011;32291;52.010;4.446;2022-12-05T04:01:47;34.58;;;23.73;;
46563;SDS011;32291;52.010;4.446;2022-12-05T04:03:25;35.42;;;23.77;;
46563;SDS011;32291;52.010;4.446;2022-12-05T04:04:43;32.85;;;22.65;;
46563;SDS011;32291;52.010;4.446;2022-12-05T04:05:57;35.90;;;23.50;;
46563;SDS011;32291;52.010;4.446;2022-12-05T04:07:05;35.20;;;23.98;;
46563;SDS011;32291;52.010;4.446;2022-12-05T04:08:12;33.60;;;23.95;;
46563;SDS011;32291;52.010;4.446;2022-12-05T04:09:30;34.25;;;23.58;;
46563;SDS011;32291;52.010;4.446;2022-12-05T04:10:43;33.22;;;23.08;;
46563;SDS011;32291;52.010;4.446;2022-12-05T04:11:56;32.90;;;24.05;;
46563;SDS011;32291;52.010;4.446;2022-12-05T04:13:12;38.47;;;25.55;;
46563;SDS011;32291;52.010;4.446;2022-12-05T04:15:57;33.90;;;23.45;;
46563;SDS011;32291;52.010;4.446;2022-12-05T04:21:12;31.33;;;21.48;;
46563;SDS011;32291;52.010;4.446;2022-12-05T04:22:41;30.67;;;20.77;;
46563;SDS011;32291;52.010;4.446;2022-12-05T04:23:47;33.13;;;21.92;;
46563;SDS011;32291;52.010;4.446;2022-12-05T04:25:11;35.35;;;21.45;;
46563;SDS011;32291;52.010;4.446;2022-12-05T04:26:37;32.25;;;20.88;;
46563;SDS011;32291;52.010;4.446;2022-12-05T04:27:53;33.30;;;21.60;;
46563;SDS011;32291;52.010;4.446;2022-12-05T04:29:33;31.50;;;21.67;;
46563;SDS011;32291;52.010;4.446;2022-12-05T04:32:22;32.15;;;22.55;;
46563;SDS011;32291;52.010;4.446;2022-12-05T04:34:44;30.95;;;21.58;;
46563;SDS011;32291;52.010;4.446;2022-12-05T04:36:00;31.92;;;21.98;;
46563;SDS011;32291;52.010;4.446;2022-12-05T04:37:20;32.20;;;21.33;;
46563;SDS011;32291;52.010;4.446;2022-12-05T04:38:29;37.05;;;23.30;;
46563;SDS011;32291;52.010;4.446;2022-12-05T04:39:50;31.13;;;21.52;;
46563;SDS011;32291;52.010;4.446;2022-12-05T04:41:06;30.67;;;21.77;;
46563;SDS011;32291;52.010;4.446;2022-12-05T04:42:19;34.22;;;23.25;;
46563;SDS011;32291;52.010;4.446;2022-12-05T04:43:32;33.13;;;22.65;;
46563;SDS011;32291;52.010;4.446;2022-12-05T04:44:48;32.20;;;22.98;;
46563;SDS011;32291;52.010;4.446;2022-12-05T04:45:57;31.65;;;22.60;;
46563;SDS011;32291;52.010;4.446;2022-12-05T04:47:06;31.38;;;21.63;;
46563;SDS011;32291;52.010;4.446;2022-12-05T04:48:14;29.85;;;20.75;;
46563;SDS011;32291;52.010;4.446;2022-12-05T04:49:20;32.38;;;21.52;;
46563;SDS011;32291;52.010;4.446;2022-12-05T04:50:28;29.95;;;21.25;;
46563;SDS011;32291;52.010;4.446;2022-12-05T04:51:35;30.27;;;20.98;;
46563;SDS011;32291;52.010;4.446;2022-12-05T04:52:40;29.25;;;20.90;;
46563;SDS011;32291;52.010;4.446;2022-12-05T04:53:53;31.17;;;20.70;;
46563;SDS011;32291;52.010;4.446;2022-12-05T04:55:14;26.75;;;19.75;;
46563;SDS011;32291;52.010;4.446;2022-12-05T04:56:26;31.38;;;20.75;;
46563;SDS011;32291;52.010;4.446;2022-12-05T04:57:39;30.80;;;21.75;;
46563;SDS011;32291;52.010;4.446;2022-12-05T04:58:54;34.13;;;22.23;;
46563;SDS011;32291;52.010;4.446;2022-12-05T04:59:58;33.42;;;22.30;;
46563;SDS011;32291;52.010;4.446;2022-12-05T05:01:03;29.23;;;21.55;;
46563;SDS011;32291;52.010;4.446;2022-12-05T05:02:23;31.15;;;19.95;;
46563;SDS011;32291;52.010;4.446;2022-12-05T05:05:13;32.05;;;21.25;;
46563;SDS011;32291;52.010;4.446;2022-12-05T05:06:23;29.02;;;21.08;;
46563;SDS011;32291;52.010;4.446;2022-12-05T05:07:26;31.42;;;21.58;;
46563;SDS011;32291;52.010;4.446;2022-12-05T05:08:28;30.88;;;21.40;;
46563;SDS011;32291;52.010;4.446;2022-12-05T05:09:31;29.48;;;21.00;;
46563;SDS011;32291;52.010;4.446;2022-12-05T05:10:37;32.50;;;20.98;;
46563;SDS011;32291;52.010;4.446;2022-12-05T05:11:52;27.65;;;20.45;;
46563;SDS011;32291;52.010;4.446;2022-12-05T05:12:55;27.77;;;20.23;;
46563;SDS011;32291;52.010;4.446;2022-12-05T05:13:57;30.92;;;21.23;;
46563;SDS011;32291;52.010;4.446;2022-12-05T05:15:00;29.38;;;21.02;;
46563;SDS011;32291;52.010;4.446;2022-12-05T05:16:04;28.52;;;20.58;;
46563;SDS011;32291;52.010;4.446;2022-12-05T05:17:10;32.47;;;21.75;;
46563;SDS011;32291;52.010;4.446;2022-12-05T05:18:12;28.20;;;21.67;;
46563;SDS011;32291;52.010;4.446;2022-12-05T05:19:15;29.70;;;21.20;;
46563;SDS011;32291;52.010;4.446;2022-12-05T05:20:20;30.38;;;21.52;;
46563;SDS011;32291;52.010;4.446;2022-12-05T05:21:28;30.27;;;20.48;;
46563;SDS011;32291;52.010;4.446;2022-12-05T05:22:34;33.03;;;21.95;;
46563;SDS011;32291;52.010;4.446;2022-12-05T05:23:36;30.73;;;21.95;;
46563;SDS011;32291;52.010;4.446;2022-12-05T05:24:38;29.70;;;21.48;;
46563;SDS011;32291;52.010;4.446;2022-12-05T05:25:40;31.05;;;21.75;;
46563;SDS011;32291;52.010;4.446;2022-12-05T05:26:45;31.38;;;21.40;;
46563;SDS011;32291;52.010;4.446;2022-12-05T05:27:51;33.63;;;20.80;;
46563;SDS011;32291;52.010;4.446;2022-12-05T05:28:56;31.50;;;21.10;;
46563;SDS011;32291;52.010;4.446;2022-12-05T05:29:59;30.52;;;21.33;;
46563;SDS011;32291;52.010;4.446;2022-12-05T05:31:02;32.53;;;21.30;;
46563;SDS011;32291;52.010;4.446;2022-12-05T05:32:06;30.75;;;22.02;;
46563;SDS011;32291;52.010;4.446;2022-12-05T05:33:08;29.40;;;20.80;;
46563;SDS011;32291;52.010;4.446;2022-12-05T05:34:11;30.70;;;21.27;;
46563;SDS011;32291;52.010;4.446;2022-12-05T05:35:16;28.42;;;20.50;;
46563;SDS011;32291;52.010;4.446;2022-12-05T05:36:18;28.27;;;20.85;;
46563;SDS011;32291;52.010;4.446;2022-12-05T05:37:23;31.35;;;21.75;;
46563;SDS011;32291;52.010;4.446;2022-12-05T05:38:25;28.80;;;23.42;;
46563;SDS011;32291;52.010;4.446;2022-12-05T05:39:28;31.48;;;21.95;;
46563;SDS011;32291;52.010;4.446;2022-12-05T05:40:30;34.88;;;23.10;;
46563;SDS011;32291;52.010;4.446;2022-12-05T05:41:37;30.45;;;21.95;;
46563;SDS011;32291;52.010;4.446;2022-12-05T05:42:41;28.42;;;20.95;;
46563;SDS011;32291;52.010;4.446;2022-12-05T05:43:54;34.13;;;22.98;;
46563;SDS011;32291;52.010;4.446;2022-12-05T05:45:01;31.80;;;21.17;;
46563;SDS011;32291;52.010;4.446;2022-12-05T05:46:04;30.35;;;21.20;;
46563;SDS011;32291;52.010;4.446;2022-12-05T05:47:06;28.48;;;21.92;;
46563;SDS011;32291;52.010;4.446;2022-12-05T05:48:10;32.58;;;22.15;;
46563;SDS011;32291;52.010;4.446;2022-12-05T05:49:12;28.83;;;20.95;;
46563;SDS011;32291;52.010;4.446;2022-12-05T05:50:14;30.45;;;21.73;;
46563;SDS011;32291;52.010;4.446;2022-12-05T05:51:17;29.02;;;20.92;;
46563;SDS011;32291;52.010;4.446;2022-12-05T05:52:21;31.65;;;22.60;;
46563;SDS011;32291;52.010;4.446;2022-12-05T05:53:24;31.70;;;22.25;;
46563;SDS011;32291;52.010;4.446;2022-12-05T05:54:26;32.90;;;22.33;;
46563;SDS011;32291;52.010;4.446;2022-12-05T05:55:29;33.42;;;23.20;;
46563;SDS011;32291;52.010;4.446;2022-12-05T05:56:31;29.33;;;21.83;;
46563;SDS011;32291;52.010;4.446;2022-12-05T05:57:34;31.05;;;22.23;;
46563;SDS011;32291;52.010;4.446;2022-12-05T05:58:37;28.30;;;21.23;;
46563;SDS011;32291;52.010;4.446;2022-12-05T05:59:42;32.10;;;22.30;;
46563;SDS011;32291;52.010;4.446;2022-12-05T06:00:46;31.48;;;22.98;;
46563;SDS011;32291;52.010;4.446;2022-12-05T06:01:48;29.10;;;21.75;;
46563;SDS011;32291;52.010;4.446;2022-12-05T06:02:51;31.35;;;21.70;;
46563;SDS011;32291;52.010;4.446;2022-12-05T06:03:53;32.28;;;22.70;;
46563;SDS011;32291;52.010;4.446;2022-12-05T06:04:56;31.98;;;22.23;;
46563;SDS011;32291;52.010;4.446;2022-12-05T06:06:00;30.55;;;22.95;;
46563;SDS011;32291;52.010;4.446;2022-12-05T06:07:06;34.85;;;23.80;;
46563;SDS011;32291;52.010;4.446;2022-12-05T06:08:08;32.78;;;22.77;;
46563;SDS011;32291;52.010;4.446;2022-12-05T06:09:10;31.60;;;23.27;;
46563;SDS011;32291;52.010;4.446;2022-12-05T06:10:13;33.97;;;22.45;;
46563;SDS011;32291;52.010;4.446;2022-12-05T06:11:18;32.15;;;23.85;;
46563;SDS011;32291;52.010;4.446;2022-12-05T06:12:24;37.85;;;24.88;;
46563;SDS011;32291;52.010;4.446;2022-12-05T06:13:27;33.20;;;23.02;;
46563;SDS011;32291;52.010;4.446;2022-12-05T06:14:30;33.40;;;22.67;;
46563;SDS011;32291;52.010;4.446;2022-12-05T06:15:33;34.70;;;23.25;;
46563;SDS011;32291;52.010;4.446;2022-12-05T06:16:39;43.47;;;24.15;;
46563;SDS011;32291;52.010;4.446;2022-12-05T06:17:42;33.97;;;21.98;;
46563;SDS011;32291;52.010;4.446;2022-12-05T06:18:45;30.45;;;22.63;;
46563;SDS011;32291;52.010;4.446;2022-12-05T06:19:47;32.78;;;23.98;;
46563;SDS011;32291;52.010;4.446;2022-12-05T06:20:51;34.42;;;23.98;;
46563;SDS011;32291;52.010;4.446;2022-12-05T06:21:58;35.28;;;24.35;;
46563;SDS011;32291;52.010;4.446;2022-12-05T06:23:01;32.70;;;22.60;;
46563;SDS011;32291;52.010;4.446;2022-12-05T06:24:03;33.75;;;22.83;;
46563;SDS011;32291;52.010;4.446;2022-12-05T06:25:07;34.03;;;24.60;;
46563;SDS011;32291;52.010;4.446;2022-12-05T06:26:15;36.83;;;23.15;;
46563;SDS011;32291;52.010;4.446;2022-12-05T06:27:21;35.40;;;23.92;;
46563;SDS011;32291;52.010;4.446;2022-12-05T06:28:24;34.28;;;24.00;;
46563;SDS011;32291;52.010;4.446;2022-12-05T06:29:26;34.85;;;22.55;;
46563;SDS011;32291;52.010;4.446;2022-12-05T06:30:28;36.00;;;24.05;;
46563;SDS011;32291;52.010;4.446;2022-12-05T06:31:30;37.15;;;24.15;;
46563;SDS011;32291;52.010;4.446;2022-12-05T06:32:33;33.92;;;22.77;;
46563;SDS011;32291;52.010;4.446;2022-12-05T06:33:39;32.95;;;23.23;;
46563;SDS011;32291;52.010;4.446;2022-12-05T06:34:41;35.97;;;24.30;;
46563;SDS011;32291;52.010;4.446;2022-12-05T06:35:43;34.67;;;23.77;;
46563;SDS011;32291;52.010;4.446;2022-12-05T06:36:46;34.97;;;23.60;;
46563;SDS011;32291;52.010;4.446;2022-12-05T06:37:48;34.47;;;22.90;;
46563;SDS011;32291;52.010;4.446;2022-12-05T06:38:51;33.65;;;23.00;;
46563;SDS011;32291;52.010;4.446;2022-12-05T06:39:54;38.22;;;24.60;;
46563;SDS011;32291;52.010;4.446;2022-12-05T06:40:56;34.42;;;24.30;;
46563;SDS011;32291;52.010;4.446;2022-12-05T06:42:00;38.45;;;23.88;;
46563;SDS011;32291;52.010;4.446;2022-12-05T06:43:02;37.58;;;24.38;;
46563;SDS011;32291;52.010;4.446;2022-12-05T06:44:05;35.45;;;23.83;;
46563;SDS011;32291;52.010;4.446;2022-12-05T06:45:07;31.42;;;23.45;;
46563;SDS011;32291;52.010;4.446;2022-12-05T06:46:10;31.23;;;23.15;;
46563;SDS011;32291;52.010;4.446;2022-12-05T06:47:16;33.50;;;23.08;;
46563;SDS011;32291;52.010;4.446;2022-12-05T06:48:18;34.92;;;22.88;;
46563;SDS011;32291;52.010;4.446;2022-12-05T06:49:22;33.88;;;23.23;;
46563;SDS011;32291;52.010;4.446;2022-12-05T06:50:32;35.10;;;23.35;;
46563;SDS011;32291;52.010;4.446;2022-12-05T06:51:35;30.33;;;22.92;;
46563;SDS011;32291;52.010;4.446;2022-12-05T06:52:37;33.38;;;22.35;;
46563;SDS011;32291;52.010;4.446;2022-12-05T06:53:40;32.15;;;24.20;;
46563;SDS011;32291;52.010;4.446;2022-12-05T06:54:43;33.65;;;22.70;;
46563;SDS011;32291;52.010;4.446;2022-12-05T06:55:56;31.35;;;22.58;;
46563;SDS011;32291;52.010;4.446;2022-12-05T06:57:03;33.78;;;22.38;;
46563;SDS011;32291;52.010;4.446;2022-12-05T06:58:06;34.00;;;23.55;;
46563;SDS011;32291;52.010;4.446;2022-12-05T06:59:09;31.15;;;23.55;;
46563;SDS011;32291;52.010;4.446;2022-12-05T07:00:11;32.22;;;23.10;;
46563;SDS011;32291;52.010;4.446;2022-12-05T07:01:33;34.95;;;22.88;;
46563;SDS011;32291;52.010;4.446;2022-12-05T07:02:48;33.42;;;23.05;;
46563;SDS011;32291;52.010;4.446;2022-12-05T07:03:53;32.42;;;22.90;;
46563;SDS011;32291;52.010;4.446;2022-12-05T07:04:54;35.55;;;22.05;;
46563;SDS011;32291;52.010;4.446;2022-12-05T07:06:18;33.17;;;23.83;;
46563;SDS011;32291;52.010;4.446;2022-12-05T07:07:56;28.67;;;19.70;;
46563;SDS011;32291;52.010;4.446;2022-12-05T07:08:59;27.98;;;20.83;;
46563;SDS011;32291;52.010;4.446;2022-12-05T07:10:03;34.15;;;23.33;;
46563;SDS011;32291;52.010;4.446;2022-12-05T07:11:14;30.85;;;22.83;;
46563;SDS011;32291;52.010;4.446;2022-12-05T07:12:17;29.50;;;22.10;;
46563;SDS011;32291;52.010;4.446;2022-12-05T07:13:24;31.55;;;21.83;;
46563;SDS011;32291;52.010;4.446;2022-12-05T07:14:27;34.25;;;24.02;;
46563;SDS011;32291;52.010;4.446;2022-12-05T07:15:29;35.13;;;21.70;;
46563;SDS011;32291;52.010;4.446;2022-12-05T07:16:32;30.05;;;22.40;;
46563;SDS011;32291;52.010;4.446;2022-12-05T07:17:34;30.92;;;21.35;;